NWWW METAR and TAF weather

Enter ICAO airport designator
Station Type Date Time Source
NWWW METAR 2020/10/20 17:30 UTC NOAA

NWWW 201730Z AUTO 12002KT CAVOK 20/17 Q1012 NOSIG


Station Type Date Time Source
NWWW Decoded METAR 2020/10/20 17:30 UTC NOAA

La Tontouta Nlle-Caledonie , New Caledonia (NWWW) 22-01S 166-13E 14M
Oct 20, 2020 - 01:30 PM EDT / 2020.10.20 1730 UTC
Wind: from the ESE (120 degrees) at 2 MPH (2 KT):0
Visibility: greater than 7 mile(s):0
Temperature: 68 F (20 C)
Dew Point: 62 F (17 C)
Relative Humidity: 82%
Pressure (altimeter): 29.88 in. Hg (1012 hPa)
ob: NWWW 201730Z AUTO 12002KT CAVOK 20/17 Q1012 NOSIG
cycle: 17

Station Type Date Time Source
NWWW TAF 2020/10/20 12:11 UTC NOAA

TAF NWWW 201100Z 2012/2112 VRB02KT 9999 FEW060 PROB40
TEMPO 2100/2106 4000 SHRA BKN014 SCT020TCU

Example: see airport list